Huvudsida
METAR-TAF:

METAR-TAF

Flygplatser :

Agra Airport

Agra, Indien

latitud: 27-09-27N, longitud: 077-57-39E, höjd: 168 m

METAR: saknas

Tid: 18:49 (13:19 UTC)

Väderprognos

Denna rapport gjordes för 2 timmar och 19 minuter sedan, klockan 11:00 UTC
Prognos gäller från 24 kl. 12 UTC till 25 kl. 18 UTC
Vind 10 kt från nordväst
Sikt: 6000 m
Spridda moln på en höjd av 3000 ft
Temporärt
från 25 kl. 00 UTC till 25 kl. 02 UTC
Sikt: 5000 m
torrdis
Temporärt
från 25 kl. 08 UTC till 25 kl. 10 UTC
Vind 15 kt från väst i byarna ända upp till 25 kt
Sikt: 3000 m
Spridda moln på en höjd av 2500 ft
Få moln på en höjd av 3000 ft, Högtornande cumulus.
Spridda moln på en höjd av 10000 ft
utbrett stoft,

TAF: VIAG 241100Z 2412/2518 31010KT 6000 SCT030 TEMPO 2500/2502 5000 HZ TEMPO 2508/2510 28015G25KT 3000 DU SCT025 FEW030TCU SCT100

Aktuella väderrapporter och prognoser från 4000 flygplatser (METAR- och TAF-rapporter).

De tillgängliga stationerna syns som gula och röda prickar på kartan.

För musen över prickarna för att se namnen på stationerna.

Klicka sedan för att få väderrapporter och prognoser.

För att ändra kartan: Klicka på de gröna knapparna med ett svart kors på för att zooma in; den gröna knappen med ett streck på för att zooma ut; eller på de gröna pilarna för angränsande kartor.


METAR-TAF: